createdAt,value
2017-11-08T00:02:13.343Z,21.70
2017-11-08T00:04:43.402Z,21.50
2017-11-08T00:07:10.890Z,23.07
2017-11-08T00:09:38.954Z,21.57
2017-11-08T00:12:06.417Z,26.03
2017-11-08T00:14:33.899Z,21.10
2017-11-08T00:17:02.128Z,27.67
2017-11-08T00:19:30.288Z,22.63
2017-11-08T00:22:12.680Z,30.60
2017-11-08T00:24:40.212Z,23.70
2017-11-08T00:27:08.435Z,22.40
2017-11-08T00:29:35.911Z,25.90
2017-11-08T00:32:03.388Z,23.60
2017-11-08T00:34:31.689Z,24.23
2017-11-08T00:37:00.275Z,23.50
2017-11-08T00:39:28.511Z,25.40
2017-11-08T00:41:56.086Z,21.53
2017-11-08T00:44:23.555Z,24.73
2017-11-08T00:46:51.783Z,24.90
2017-11-08T00:49:20.012Z,23.57
2017-11-08T00:51:54.895Z,24.00
2017-11-08T00:54:22.356Z,27.03
2017-11-08T00:56:49.820Z,23.60
2017-11-08T00:59:17.300Z,21.50
2017-11-08T01:01:45.543Z,23.40
2017-11-08T01:04:13.519Z,24.77
2017-11-08T01:06:40.993Z,20.80
2017-11-08T01:09:09.231Z,20.97
2017-11-08T01:11:36.926Z,22.70
2017-11-08T01:14:05.171Z,23.37
2017-11-08T01:16:32.638Z,21.03
2017-11-08T01:19:00.116Z,28.27
2017-11-08T01:21:28.377Z,23.40
2017-11-08T01:23:55.947Z,21.80
2017-11-08T01:26:23.410Z,20.50
2017-11-08T01:28:51.681Z,22.13
2017-11-08T01:31:20.295Z,21.80
2017-11-08T01:33:47.772Z,25.03
2017-11-08T01:36:15.253Z,23.63
2017-11-08T01:38:42.731Z,22.73
2017-11-08T01:41:17.524Z,26.70
2017-11-08T01:43:44.983Z,22.43
2017-11-08T01:46:16.428Z,25.40
2017-11-08T01:48:43.886Z,30.07
2017-11-08T01:51:13.291Z,24.93
2017-11-08T01:53:40.799Z,22.20
2017-11-08T01:56:09.728Z,22.67
2017-11-08T01:58:37.418Z,25.30
2017-11-08T02:01:04.883Z,22.17
2017-11-08T02:03:32.351Z,22.90
2017-11-08T02:05:59.825Z,19.80
2017-11-08T02:08:28.078Z,19.40
2017-11-08T02:10:55.935Z,23.37
2017-11-08T02:13:23.503Z,23.10
2017-11-08T02:15:51.083Z,21.47
2017-11-08T02:18:21.798Z,21.10
2017-11-08T02:20:50.044Z,20.50
2017-11-08T02:23:18.153Z,20.10
2017-11-08T02:25:46.390Z,24.30
2017-11-08T02:28:13.909Z,22.50
2017-11-08T02:30:41.388Z,22.93
2017-11-08T02:33:08.880Z,19.70
2017-11-08T02:35:36.461Z,20.77
2017-11-08T02:38:05.551Z,20.10
2017-11-08T02:40:33.058Z,20.47
2017-11-08T02:43:01.284Z,22.50
2017-11-08T02:45:31.401Z,21.20
2017-11-08T02:47:59.637Z,22.47
2017-11-08T02:50:27.096Z,23.23
2017-11-08T02:52:54.592Z,24.57
2017-11-08T02:55:22.829Z,25.47
2017-11-08T02:57:50.323Z,26.27
2017-11-08T03:00:18.740Z,21.77
2017-11-08T03:02:51.093Z,23.60
2017-11-08T03:05:19.351Z,25.50
2017-11-08T03:07:46.815Z,23.93
2017-11-08T03:10:15.047Z,25.80
2017-11-08T03:12:42.531Z,24.23
2017-11-08T03:15:10.458Z,21.20
2017-11-08T03:17:37.984Z,24.50
2017-11-08T03:20:05.527Z,24.77
2017-11-08T03:22:32.997Z,24.77
2017-11-08T03:25:00.533Z,25.73
2017-11-08T03:27:28.282Z,29.93
2017-11-08T03:29:55.863Z,29.13
2017-11-08T03:32:24.191Z,27.00
2017-11-08T03:34:51.777Z,27.50
2017-11-08T03:37:19.361Z,30.93
2017-11-08T03:39:48.035Z,28.50
2017-11-08T03:42:15.512Z,28.77
2017-11-08T03:44:43.738Z,30.93
2017-11-08T03:47:11.228Z,27.97
2017-11-08T03:49:38.687Z,30.97
2017-11-08T03:52:06.919Z,28.17
2017-11-08T03:54:34.446Z,29.67
2017-11-08T03:57:01.976Z,31.63
2017-11-08T03:59:30.246Z,33.00
2017-11-08T04:01:59.251Z,30.63
2017-11-08T04:04:26.714Z,31.57
2017-11-08T04:06:54.942Z,34.50
2017-11-08T04:09:22.430Z,31.97
2017-11-08T04:11:50.675Z,31.60
2017-11-08T04:14:18.560Z,35.80
2017-11-08T04:16:46.136Z,34.43
2017-11-08T04:19:15.112Z,35.47
2017-11-08T04:21:42.583Z,29.47
2017-11-08T04:24:10.857Z,34.00
2017-11-08T04:26:39.295Z,36.13
2017-11-08T04:29:06.760Z,32.30
2017-11-08T04:31:34.217Z,32.77
2017-11-08T04:34:01.692Z,32.97
2017-11-08T04:36:29.274Z,34.10
2017-11-08T04:38:56.727Z,37.40
2017-11-08T04:41:24.995Z,40.40
2017-11-08T04:43:53.271Z,35.93
2017-11-08T04:46:21.505Z,34.30
2017-11-08T04:48:48.980Z,36.00
2017-11-08T04:51:16.431Z,39.83
2017-11-08T04:53:43.887Z,34.30
2017-11-08T04:56:11.351Z,32.70
2017-11-08T04:58:38.828Z,33.53
2017-11-08T05:01:06.292Z,29.73
2017-11-08T05:03:33.771Z,31.73
2017-11-08T05:06:01.998Z,32.50
2017-11-08T05:08:29.848Z,31.47
2017-11-08T05:10:57.343Z,35.37
2017-11-08T05:13:25.618Z,34.87
2017-11-08T05:15:54.588Z,33.03
2017-11-08T05:18:22.068Z,35.67
2017-11-08T05:20:51.936Z,35.27
2017-11-08T05:23:20.167Z,35.87
2017-11-08T05:25:47.707Z,34.57
2017-11-08T05:28:15.178Z,36.03
2017-11-08T05:30:43.498Z,33.60
2017-11-08T05:33:11.527Z,38.60
2017-11-08T05:35:39.764Z,35.70
2017-11-08T05:38:07.231Z,40.60
2017-11-08T05:40:34.807Z,36.83
2017-11-08T05:43:02.299Z,36.37
2017-11-08T05:45:29.827Z,38.10
2017-11-08T05:47:58.495Z,38.43
2017-11-08T05:50:25.960Z,37.57
2017-11-08T05:52:54.195Z,41.67
2017-11-08T05:55:21.681Z,40.20
2017-11-08T05:57:49.151Z,40.50
2017-11-08T06:00:16.742Z,39.53
2017-11-08T06:02:45.000Z,49.53
2017-11-08T06:05:13.224Z,41.80
2017-11-08T06:07:40.716Z,39.47
2017-11-08T06:10:08.959Z,41.20
2017-11-08T06:12:36.453Z,39.07
2017-11-08T06:15:04.679Z,42.40
2017-11-08T06:17:32.213Z,36.67
2017-11-08T06:19:59.758Z,39.10
2017-11-08T06:22:28.023Z,43.43
2017-11-08T06:24:55.509Z,42.10
2017-11-08T06:27:23.732Z,39.80
2017-11-08T06:29:51.212Z,37.83
2017-11-08T06:32:19.478Z,47.53
2017-11-08T06:34:47.712Z,42.77
2017-11-08T06:37:15.170Z,38.67
2017-11-08T06:39:42.655Z,37.93
2017-11-08T06:42:10.180Z,42.43
2017-11-08T06:44:38.279Z,40.73
2017-11-08T06:47:05.760Z,40.77
2017-11-08T06:49:33.323Z,40.47
2017-11-08T06:52:00.786Z,40.50
2017-11-08T06:54:29.022Z,39.40
2017-11-08T06:56:56.746Z,41.60
2017-11-08T06:59:24.213Z,42.63
2017-11-08T07:01:51.689Z,42.60
2017-11-08T07:04:19.960Z,43.27
2017-11-08T07:06:47.426Z,38.27
2017-11-08T07:09:14.911Z,39.57
2017-11-08T07:11:43.903Z,40.03
2017-11-08T07:14:12.135Z,40.97
2017-11-08T07:16:39.647Z,37.20
2017-11-08T07:19:07.199Z,40.40
2017-11-08T07:21:34.659Z,42.30
2017-11-08T07:24:02.894Z,42.60
2017-11-08T07:26:30.391Z,42.53
2017-11-08T07:28:57.919Z,43.67
2017-11-08T07:31:25.506Z,43.17
2017-11-08T07:33:52.999Z,43.90
2017-11-08T07:36:20.515Z,42.37
2017-11-08T07:38:47.984Z,44.50
2017-11-08T07:41:16.250Z,42.83
2017-11-08T07:43:45.230Z,43.70
2017-11-08T07:46:12.812Z,47.20
2017-11-08T07:48:40.363Z,46.13
2017-11-08T07:51:07.920Z,43.10
2017-11-08T07:53:36.904Z,43.60
2017-11-08T07:56:04.367Z,46.33
2017-11-08T07:58:31.924Z,40.17
2017-11-08T08:00:59.406Z,48.23
2017-11-08T08:03:27.632Z,42.80
2017-11-08T08:05:55.106Z,42.70
2017-11-08T08:08:22.582Z,42.10
2017-11-08T08:10:50.039Z,44.27
2017-11-08T08:13:19.228Z,46.37
2017-11-08T08:15:46.715Z,45.17
2017-11-08T08:18:14.959Z,47.10
2017-11-08T08:20:43.193Z,42.77
2017-11-08T08:23:10.709Z,46.90
2017-11-08T08:25:38.952Z,46.60
2017-11-08T08:28:06.424Z,46.37
2017-11-08T08:30:33.939Z,50.80
2017-11-08T08:33:01.407Z,47.43
2017-11-08T08:35:28.871Z,48.77
2017-11-08T08:37:56.468Z,48.60
2017-11-08T08:40:24.736Z,43.90
2017-11-08T08:42:52.986Z,48.27
2017-11-08T08:45:20.559Z,43.50
2017-11-08T08:47:48.028Z,50.43
2017-11-08T08:50:15.511Z,47.70
2017-11-08T08:52:42.971Z,51.20
2017-11-08T08:55:10.496Z,50.73
2017-11-08T08:57:38.536Z,52.47
2017-11-08T09:00:06.012Z,49.87
2017-11-08T09:02:33.494Z,43.93
2017-11-08T09:05:01.744Z,46.90
2017-11-08T09:07:30.743Z,47.73
2017-11-08T09:09:58.224Z,45.30
2017-11-08T09:12:26.529Z,47.43
2017-11-08T09:14:53.994Z,49.03
2017-11-08T09:17:21.470Z,44.47
2017-11-08T09:19:48.958Z,47.57
2017-11-08T09:22:17.225Z,50.83
2017-11-08T09:24:52.384Z,45.70
2017-11-08T09:27:20.612Z,49.90
2017-11-08T09:29:53.711Z,52.03
2017-11-08T09:32:21.294Z,52.50
2017-11-08T09:34:49.568Z,52.83
2017-11-08T09:37:32.736Z,51.87
2017-11-08T09:40:00.191Z,46.33
2017-11-08T09:42:31.693Z,50.90
2017-11-08T09:44:59.175Z,53.00
2017-11-08T09:47:27.405Z,49.37
2017-11-08T09:50:00.743Z,50.70
2017-11-08T09:52:28.980Z,51.67
2017-11-08T09:54:56.453Z,49.90
2017-11-08T09:57:25.852Z,51.37
2017-11-08T09:59:53.418Z,52.10
2017-11-08T10:02:20.970Z,44.63
2017-11-08T10:04:48.532Z,50.70
2017-11-08T10:07:16.017Z,49.90
2017-11-08T10:09:50.109Z,52.33
2017-11-08T10:12:18.174Z,55.60
2017-11-08T10:14:45.635Z,52.77
2017-11-08T10:17:13.891Z,51.50
2017-11-08T10:19:41.372Z,49.30
2017-11-08T10:22:09.591Z,50.70
2017-11-08T10:24:37.084Z,51.13
2017-11-08T10:27:04.555Z,51.23
2017-11-08T10:29:32.791Z,49.20
2017-11-08T10:32:00.247Z,49.40
2017-11-08T10:34:27.730Z,48.70
2017-11-08T10:36:55.197Z,50.47
2017-11-08T10:39:22.660Z,48.60
2017-11-08T10:41:50.904Z,47.20
2017-11-08T10:44:19.121Z,48.27
2017-11-08T10:46:46.589Z,48.07
2017-11-08T10:49:19.830Z,43.63
2017-11-08T10:51:48.057Z,49.23
2017-11-08T10:54:15.541Z,46.03
2017-11-08T10:56:43.105Z,46.47
2017-11-08T10:59:16.309Z,46.10
2017-11-08T11:01:44.585Z,48.80
2017-11-08T11:04:12.832Z,46.77
2017-11-08T11:06:40.396Z,49.33
2017-11-08T11:09:07.968Z,50.37
2017-11-08T11:11:35.436Z,46.03
2017-11-08T11:14:09.300Z,46.70
2017-11-08T11:16:36.783Z,43.43
2017-11-08T11:19:04.357Z,45.00
2017-11-08T11:21:39.118Z,43.80
2017-11-08T11:24:12.605Z,44.73
2017-11-08T11:26:41.986Z,45.30
2017-11-08T11:29:10.252Z,48.67
2017-11-08T11:31:37.772Z,45.60
2017-11-08T11:34:05.264Z,45.20
2017-11-08T11:36:32.731Z,47.33
2017-11-08T11:39:00.212Z,45.93
2017-11-08T11:41:28.442Z,44.20
2017-11-08T11:43:55.925Z,48.90
2017-11-08T11:46:23.399Z,44.20
2017-11-08T11:48:53.453Z,45.23
2017-11-08T11:51:25.760Z,42.73
2017-11-08T11:53:53.222Z,43.40
2017-11-08T11:56:20.776Z,41.73
2017-11-08T11:58:48.258Z,46.17
2017-11-08T12:01:16.484Z,43.07
2017-11-08T12:03:43.975Z,45.17
2017-11-08T12:06:11.489Z,40.40
2017-11-08T12:08:39.651Z,44.07
2017-11-08T12:11:07.181Z,45.50
2017-11-08T12:13:35.424Z,42.87
2017-11-08T12:16:02.887Z,42.90
2017-11-08T12:18:30.345Z,43.53
2017-11-08T12:20:57.836Z,43.30
2017-11-08T12:23:26.085Z,42.17
2017-11-08T12:25:53.550Z,42.80
2017-11-08T12:28:23.644Z,41.43
2017-11-08T12:30:51.108Z,40.03
2017-11-08T12:33:18.668Z,38.70
2017-11-08T12:35:47.887Z,41.23
2017-11-08T12:38:16.200Z,40.23
2017-11-08T12:40:43.688Z,38.90
2017-11-08T12:43:14.268Z,38.27
2017-11-08T12:45:41.763Z,35.63
2017-11-08T12:48:09.245Z,38.93
2017-11-08T12:50:36.719Z,35.53
2017-11-08T12:53:04.951Z,34.87
2017-11-08T12:55:32.416Z,37.93
2017-11-08T12:57:59.999Z,31.83
2017-11-08T13:00:27.460Z,36.67
2017-11-08T13:02:54.925Z,35.80
2017-11-08T13:05:30.625Z,37.60
2017-11-08T13:07:58.125Z,36.03
2017-11-08T13:10:26.415Z,36.53
2017-11-08T13:12:54.686Z,32.70
2017-11-08T13:15:22.940Z,33.40
2017-11-08T13:17:50.414Z,37.57
2017-11-08T13:20:18.876Z,37.70
2017-11-08T13:22:47.140Z,37.33
2017-11-08T13:25:14.734Z,38.23
2017-11-08T13:27:42.982Z,37.07
2017-11-08T13:30:10.457Z,37.93
2017-11-08T13:32:39.552Z,36.43
2017-11-08T13:35:07.025Z,37.47
2017-11-08T13:37:35.259Z,37.90
2017-11-08T13:40:03.508Z,38.40
2017-11-08T13:42:30.983Z,40.30
2017-11-08T13:44:58.457Z,38.60
2017-11-08T13:47:25.916Z,39.07
2017-11-08T13:49:53.488Z,40.20
2017-11-08T13:52:20.952Z,43.13
2017-11-08T13:54:49.320Z,46.50
2017-11-08T13:57:17.419Z,43.60
2017-11-08T13:59:45.652Z,42.40
2017-11-08T14:02:13.119Z,41.37
2017-11-08T14:04:40.690Z,40.10
2017-11-08T14:07:08.148Z,41.77
2017-11-08T14:09:35.626Z,41.33
2017-11-08T14:12:03.877Z,39.53
2017-11-08T14:14:31.348Z,37.73
2017-11-08T14:16:59.294Z,38.50
2017-11-08T14:19:27.281Z,36.33
2017-11-08T14:21:55.551Z,38.87
2017-11-08T14:24:23.012Z,36.50
2017-11-08T14:26:50.481Z,36.53
2017-11-08T14:29:20.808Z,37.63
2017-11-08T14:31:49.062Z,39.17
2017-11-08T14:34:16.592Z,35.30
2017-11-08T14:36:44.075Z,34.63
2017-11-08T14:39:11.536Z,39.23
2017-11-08T14:41:39.096Z,35.17
2017-11-08T14:44:07.368Z,35.87
2017-11-08T14:46:34.829Z,36.20
2017-11-08T14:49:02.302Z,35.13
2017-11-08T14:51:32.484Z,35.80
2017-11-08T14:53:59.948Z,35.87
2017-11-08T14:56:27.512Z,35.17
2017-11-08T14:58:54.984Z,34.97
2017-11-08T15:01:23.216Z,32.40
2017-11-08T15:03:50.699Z,35.73
2017-11-08T15:06:18.259Z,33.97
2017-11-08T15:08:45.724Z,37.63
2017-11-08T15:11:16.032Z,33.97
2017-11-08T15:13:43.506Z,33.17
2017-11-08T15:16:10.964Z,32.97
2017-11-08T15:18:39.448Z,35.63
2017-11-08T15:21:07.763Z,35.90
2017-11-08T15:23:35.275Z,37.50
2017-11-08T15:26:02.828Z,34.70
2017-11-08T15:28:31.076Z,35.40
2017-11-08T15:30:58.550Z,35.00
2017-11-08T15:33:26.021Z,35.30
2017-11-08T15:35:53.576Z,33.87
2017-11-08T15:38:21.041Z,35.63
2017-11-08T15:40:48.514Z,37.20
2017-11-08T15:43:18.585Z,35.60
2017-11-08T15:45:47.589Z,39.90
2017-11-08T15:48:15.064Z,37.80
2017-11-08T15:50:42.624Z,37.00
2017-11-08T15:53:10.875Z,37.67
2017-11-08T15:55:39.272Z,34.77
2017-11-08T15:58:06.734Z,40.13
2017-11-08T16:00:34.289Z,39.03
2017-11-08T16:03:01.776Z,38.17
2017-11-08T16:05:30.024Z,38.50
2017-11-08T16:07:57.997Z,36.83
2017-11-08T16:10:25.559Z,39.03
2017-11-08T16:12:55.587Z,37.57
2017-11-08T16:15:23.819Z,38.97
2017-11-08T16:17:52.283Z,37.17
2017-11-08T16:20:20.397Z,37.73
2017-11-08T16:22:47.949Z,38.30
2017-11-08T16:25:15.412Z,38.50
2017-11-08T16:27:42.877Z,39.70
2017-11-08T16:30:11.130Z,36.80
2017-11-08T16:32:38.649Z,35.67
2017-11-08T16:35:06.172Z,38.50
2017-11-08T16:37:34.424Z,38.57
2017-11-08T16:40:01.924Z,39.03
2017-11-08T16:42:29.413Z,39.90
2017-11-08T16:44:56.892Z,38.93
2017-11-08T16:47:24.364Z,41.90
2017-11-08T16:49:51.835Z,39.10
2017-11-08T16:52:20.583Z,37.83
2017-11-08T16:54:48.057Z,39.20
2017-11-08T16:57:15.641Z,36.73
2017-11-08T16:59:43.893Z,41.13
2017-11-08T17:02:11.569Z,39.20
2017-11-08T17:04:39.119Z,41.37
2017-11-08T17:07:06.576Z,38.67
2017-11-08T17:09:34.037Z,38.80
2017-11-08T17:12:02.334Z,37.10
2017-11-08T17:14:30.584Z,36.87
2017-11-08T17:16:58.892Z,39.07
2017-11-08T17:19:26.366Z,37.20
2017-11-08T17:21:53.835Z,34.80
2017-11-08T17:24:21.333Z,37.50
2017-11-08T17:26:49.618Z,39.50
2017-11-08T17:29:17.850Z,40.27
2017-11-08T17:31:45.953Z,37.93
2017-11-08T17:34:13.469Z,38.87
2017-11-08T17:36:40.964Z,34.07
2017-11-08T17:39:08.428Z,45.22
2017-11-08T17:41:36.005Z,38.57
2017-11-08T17:44:04.249Z,36.17
2017-11-08T17:46:31.822Z,35.30
2017-11-08T17:48:59.300Z,37.80
2017-11-08T17:51:27.460Z,37.83
2017-11-08T17:53:55.716Z,37.60
2017-11-08T17:56:23.197Z,39.80
2017-11-08T17:58:51.425Z,37.57
2017-11-08T18:01:18.888Z,36.97
2017-11-08T18:03:46.463Z,40.73
2017-11-08T18:06:13.926Z,37.23
2017-11-08T18:08:41.392Z,39.40
2017-11-08T18:11:09.652Z,38.33
2017-11-08T18:13:37.108Z,38.17
2017-11-08T18:16:04.586Z,36.20
2017-11-08T18:18:32.836Z,37.47
2017-11-08T18:21:01.065Z,39.93
2017-11-08T18:23:28.536Z,38.80
2017-11-08T18:25:56.067Z,35.83
2017-11-08T18:28:23.538Z,38.50
2017-11-08T18:30:50.996Z,37.93
2017-11-08T18:33:18.464Z,38.43
2017-11-08T18:35:45.928Z,38.93
2017-11-08T18:38:13.421Z,38.97
2017-11-08T18:40:40.914Z,41.30
2017-11-08T18:43:08.429Z,37.97
2017-11-08T18:45:36.017Z,37.80
2017-11-08T18:48:04.267Z,39.37
2017-11-08T18:50:31.728Z,40.80
2017-11-08T18:52:59.188Z,41.97
2017-11-08T18:55:27.465Z,43.47
2017-11-08T18:57:55.765Z,45.03
2017-11-08T19:00:23.228Z,42.90
2017-11-08T19:02:50.753Z,42.67
2017-11-08T19:05:18.213Z,38.67
2017-11-08T19:07:46.483Z,36.70
2017-11-08T19:10:14.514Z,35.93
2017-11-08T19:12:41.976Z,36.67
2017-11-08T19:15:09.481Z,39.80
2017-11-08T19:17:36.928Z,38.03
2017-11-08T19:20:05.294Z,40.60
2017-11-08T19:22:32.772Z,37.70
2017-11-08T19:25:01.005Z,36.07
2017-11-08T19:27:28.473Z,39.40
2017-11-08T19:29:56.097Z,36.60
2017-11-08T19:32:23.564Z,34.80
2017-11-08T19:34:51.056Z,34.47
2017-11-08T19:37:19.248Z,36.47
2017-11-08T19:39:47.476Z,38.50
2017-11-08T19:42:14.967Z,38.00
2017-11-08T19:44:42.521Z,36.43
2017-11-08T19:47:09.995Z,38.67
2017-11-08T19:49:38.221Z,38.80
2017-11-08T19:52:05.685Z,38.00
2017-11-08T19:54:33.169Z,38.33
2017-11-08T19:57:00.636Z,39.83
2017-11-08T19:59:28.865Z,38.27
2017-11-08T20:01:56.345Z,38.07
2017-11-08T20:04:25.328Z,36.30
2017-11-08T20:06:52.784Z,36.03
2017-11-08T20:09:20.273Z,37.47
2017-11-08T20:11:47.727Z,36.83
2017-11-08T20:14:15.962Z,35.97
2017-11-08T20:16:43.445Z,38.30
2017-11-08T20:19:10.920Z,38.80
2017-11-08T20:21:39.152Z,33.80
2017-11-08T20:24:06.636Z,36.80
2017-11-08T20:26:34.147Z,36.73
2017-11-08T20:29:01.617Z,37.20
2017-11-08T20:31:29.097Z,35.53
2017-11-08T20:33:56.574Z,37.60
2017-11-08T20:36:24.798Z,37.33
2017-11-08T20:38:52.269Z,37.50
2017-11-08T20:41:19.756Z,35.40
2017-11-08T20:43:47.331Z,35.17
2017-11-08T20:46:15.600Z,35.70
2017-11-08T20:48:43.076Z,37.60
2017-11-08T20:51:11.324Z,36.60
2017-11-08T20:53:38.798Z,36.30
2017-11-08T20:56:07.040Z,34.53
2017-11-08T20:58:34.668Z,34.37
2017-11-08T21:01:02.129Z,36.97
2017-11-08T21:03:29.591Z,35.27
2017-11-08T21:05:57.092Z,34.30
2017-11-08T21:08:24.602Z,36.00
2017-11-08T21:10:52.118Z,34.77
2017-11-08T21:13:20.376Z,37.53
2017-11-08T21:15:47.973Z,34.90
2017-11-08T21:18:15.492Z,37.93
2017-11-08T21:20:44.983Z,35.97
2017-11-08T21:23:12.564Z,37.20
2017-11-08T21:25:40.912Z,34.40
2017-11-08T21:28:08.389Z,35.60
2017-11-08T21:30:35.851Z,35.30
2017-11-08T21:33:03.424Z,32.10
2017-11-08T21:35:31.663Z,32.60
2017-11-08T21:37:59.130Z,34.90
2017-11-08T21:40:26.602Z,33.93
2017-11-08T21:42:55.776Z,32.13
2017-11-08T21:45:23.241Z,31.30
2017-11-08T21:47:50.701Z,37.20
2017-11-08T21:50:18.266Z,37.27
2017-11-08T21:52:45.717Z,34.63
2017-11-08T21:55:13.177Z,35.80
2017-11-08T21:57:40.660Z,34.70
2017-11-08T22:00:08.889Z,35.83
2017-11-08T22:02:36.348Z,33.67
2017-11-08T22:05:03.829Z,33.57
2017-11-08T22:07:31.385Z,35.67
2017-11-08T22:09:59.676Z,34.23
2017-11-08T22:12:27.916Z,35.17
2017-11-08T22:14:55.667Z,30.37
2017-11-08T22:17:23.132Z,35.27
2017-11-08T22:19:50.711Z,31.87
2017-11-08T22:22:18.175Z,33.43
2017-11-08T22:24:46.097Z,33.90
2017-11-08T22:27:13.592Z,34.77
2017-11-08T22:29:41.041Z,32.80
2017-11-08T22:32:08.604Z,33.10
2017-11-08T22:34:37.017Z,35.63
2017-11-08T22:37:05.265Z,33.70
2017-11-08T22:39:32.726Z,34.50
2017-11-08T22:42:00.189Z,32.50
2017-11-08T22:44:28.418Z,37.97
2017-11-08T22:46:55.880Z,33.37
2017-11-08T22:49:23.481Z,36.33
2017-11-08T22:51:51.745Z,36.13
2017-11-08T22:54:19.208Z,36.07
2017-11-08T22:56:47.448Z,32.53
2017-11-08T22:59:14.908Z,36.50
2017-11-08T23:01:42.393Z,35.83
2017-11-08T23:04:09.956Z,33.60
2017-11-08T23:06:38.221Z,33.30
2017-11-08T23:09:05.785Z,32.70
2017-11-08T23:11:34.073Z,33.77
2017-11-08T23:14:02.308Z,32.10
2017-11-08T23:16:30.532Z,34.60
2017-11-08T23:18:59.077Z,34.70
2017-11-08T23:21:26.536Z,32.27
2017-11-08T23:23:54.095Z,36.07
2017-11-08T23:26:21.761Z,32.40
2017-11-08T23:28:49.219Z,34.27
2017-11-08T23:31:16.771Z,32.90
2017-11-08T23:33:44.231Z,33.10
2017-11-08T23:36:12.143Z,33.60
2017-11-08T23:38:39.599Z,31.97
2017-11-08T23:41:07.074Z,33.97
2017-11-08T23:43:35.527Z,31.63
2017-11-08T23:46:03.048Z,34.60
2017-11-08T23:48:30.506Z,35.00
2017-11-08T23:50:59.624Z,32.00
2017-11-08T23:53:27.902Z,31.37
2017-11-08T23:55:56.150Z,34.00
2017-11-08T23:58:23.605Z,31.27
